createdAt,value
2023-02-13T00:00:49.110Z,3.00
2023-02-13T00:03:18.270Z,3.00
2023-02-13T00:05:46.135Z,2.90
2023-02-13T00:08:17.338Z,2.90
2023-02-13T00:10:45.389Z,2.90
2023-02-13T00:13:13.299Z,2.90
2023-02-13T00:15:42.690Z,2.90
2023-02-13T00:18:12.496Z,2.90
2023-02-13T00:20:40.432Z,2.80
2023-02-13T00:23:08.411Z,2.80
2023-02-13T00:25:36.392Z,2.80
2023-02-13T00:28:04.428Z,2.70
2023-02-13T00:30:32.345Z,2.70
2023-02-13T00:33:00.301Z,2.70
2023-02-13T00:35:30.116Z,2.70
2023-02-13T00:37:58.397Z,2.70
2023-02-13T00:40:26.586Z,2.70
2023-02-13T00:42:54.901Z,2.60
2023-02-13T00:45:22.806Z,2.60
2023-02-13T00:47:50.919Z,2.50
2023-02-13T00:50:18.974Z,2.50
2023-02-13T00:52:48.328Z,2.60
2023-02-13T00:55:16.480Z,2.60
2023-02-13T00:57:45.201Z,2.50
2023-02-13T01:00:14.379Z,2.40
2023-02-13T01:02:42.412Z,2.50
2023-02-13T01:05:10.695Z,2.50
2023-02-13T01:07:41.173Z,2.40
2023-02-13T01:10:11.263Z,2.40
2023-02-13T01:12:41.042Z,2.40
2023-02-13T01:15:09.776Z,2.30
2023-02-13T01:17:42.120Z,2.20
2023-02-13T01:20:14.760Z,2.20
2023-02-13T01:22:44.613Z,2.10
2023-02-13T01:25:13.990Z,1.90
2023-02-13T01:27:41.890Z,1.90
2023-02-13T01:30:14.671Z,1.80
2023-02-13T01:32:43.723Z,1.80
2023-02-13T01:35:13.160Z,1.70
2023-02-13T01:37:41.586Z,1.70
2023-02-13T01:40:12.312Z,1.60
2023-02-13T01:42:42.065Z,1.60
2023-02-13T01:45:23.715Z,1.60
2023-02-13T01:47:55.735Z,1.60
2023-02-13T01:50:27.049Z,1.60
2023-02-13T01:52:58.981Z,1.60
2023-02-13T01:55:28.696Z,1.50
2023-02-13T01:58:05.683Z,1.40
2023-02-13T02:00:34.985Z,1.40
2023-02-13T02:03:14.918Z,1.30
2023-02-13T02:05:44.110Z,1.20
2023-02-13T02:08:15.471Z,1.20
2023-02-13T02:10:43.798Z,1.20
2023-02-13T02:13:15.033Z,1.10
2023-02-13T02:15:44.092Z,1.10
2023-02-13T02:18:16.460Z,1.10
2023-02-13T02:21:05.473Z,1.10
2023-02-13T02:23:59.851Z,1.00
2023-02-13T02:26:54.452Z,1.00
2023-02-13T02:29:53.225Z,0.90
2023-02-13T02:32:46.004Z,0.90
2023-02-13T02:35:19.273Z,0.80
2023-02-13T02:38:09.512Z,0.70
2023-02-13T02:40:48.391Z,0.80
2023-02-13T02:43:29.326Z,0.80
2023-02-13T02:46:05.902Z,0.80
2023-02-13T02:49:02.206Z,0.80
2023-02-13T02:51:39.788Z,0.80
2023-02-13T02:54:28.251Z,0.80
2023-02-13T02:57:01.380Z,0.80
2023-02-13T02:59:48.436Z,0.80
2023-02-13T03:02:43.955Z,0.80
2023-02-13T03:05:38.107Z,0.70
2023-02-13T03:08:06.747Z,0.70
2023-02-13T03:10:55.679Z,0.70
2023-02-13T03:13:38.845Z,0.70
2023-02-13T03:16:25.295Z,0.70
2023-02-13T03:19:14.193Z,0.70
2023-02-13T03:22:07.292Z,0.70
2023-02-13T03:24:46.687Z,0.70
2023-02-13T03:27:44.556Z,0.70
2023-02-13T03:30:21.868Z,0.60
2023-02-13T03:33:01.321Z,0.60
2023-02-13T03:35:56.227Z,0.60
2023-02-13T03:38:30.835Z,0.60
2023-02-13T03:41:20.472Z,0.60
2023-02-13T03:44:00.179Z,0.60
2023-02-13T03:46:31.900Z,0.50
2023-02-13T03:49:20.179Z,0.50
2023-02-13T03:51:52.850Z,0.50
2023-02-13T03:54:44.646Z,0.50
2023-02-13T03:57:34.086Z,0.50
2023-02-13T04:00:04.371Z,0.40
2023-02-13T04:02:37.071Z,0.40
2023-02-13T04:05:10.567Z,0.40
2023-02-13T04:07:38.489Z,0.40
2023-02-13T04:10:11.614Z,0.40
2023-02-13T04:12:47.282Z,0.40
2023-02-13T04:15:19.783Z,0.40
2023-02-13T04:17:49.922Z,0.40
2023-02-13T04:20:17.980Z,0.40
2023-02-13T04:22:47.202Z,0.30
2023-02-13T04:25:18.717Z,0.30
2023-02-13T04:27:46.608Z,0.30
2023-02-13T04:30:15.334Z,0.30
2023-02-13T04:32:43.280Z,0.30
2023-02-13T04:35:13.782Z,0.30
2023-02-13T04:37:41.995Z,0.40
2023-02-13T04:40:11.250Z,0.30
2023-02-13T04:42:40.546Z,0.30
2023-02-13T04:45:09.190Z,0.30
2023-02-13T04:47:37.275Z,0.30
2023-02-13T04:50:05.942Z,0.40
2023-02-13T04:52:33.952Z,0.40
2023-02-13T04:55:01.892Z,0.40
2023-02-13T04:57:29.872Z,0.40
2023-02-13T04:59:59.226Z,0.40
2023-02-13T05:02:27.207Z,0.40
2023-02-13T05:04:55.190Z,0.30
2023-02-13T05:07:23.091Z,0.40
2023-02-13T05:09:51.004Z,0.30
2023-02-13T05:12:18.834Z,0.30
2023-02-13T05:14:46.807Z,0.30
2023-02-13T05:17:16.148Z,0.30
2023-02-13T05:19:44.090Z,0.30
2023-02-13T05:22:30.013Z,0.30
2023-02-13T05:24:58.069Z,0.30
2023-02-13T05:27:26.117Z,0.20
2023-02-13T05:29:54.091Z,0.20
2023-02-13T05:32:23.682Z,0.20
2023-02-13T05:34:51.817Z,0.20
2023-02-13T05:37:22.304Z,0.20
2023-02-13T05:39:52.544Z,0.20
2023-02-13T05:42:20.608Z,0.20
2023-02-13T05:44:48.815Z,0.10
2023-02-13T05:47:18.339Z,0.10
2023-02-13T05:50:11.119Z,0.10
2023-02-13T05:52:41.481Z,0.10
2023-02-13T05:55:12.949Z,0.10
2023-02-13T05:57:50.115Z,0.10
2023-02-13T06:00:22.222Z,0.10
2023-02-13T06:02:50.539Z,0.00
2023-02-13T06:05:22.928Z,0.10
2023-02-13T06:07:51.194Z,0.10
2023-02-13T06:10:21.748Z,0.10
2023-02-13T06:12:49.893Z,0.10
2023-02-13T06:15:19.785Z,0.10
2023-02-13T06:17:47.797Z,0.10
2023-02-13T06:20:15.973Z,0.10
2023-02-13T06:22:45.336Z,0.20
2023-02-13T06:25:13.741Z,0.10
2023-02-13T06:27:41.699Z,0.20
2023-02-13T06:30:13.823Z,0.20
2023-02-13T06:33:06.002Z,0.10
2023-02-13T06:35:36.790Z,0.10
2023-02-13T06:38:06.261Z,0.10
2023-02-13T06:44:16.655Z,0.10
2023-02-13T06:46:44.641Z,0.20
2023-02-13T06:49:12.782Z,0.20
2023-02-13T06:51:40.742Z,0.20
2023-02-13T06:54:10.167Z,0.30
2023-02-13T06:56:38.170Z,0.30
2023-02-13T06:59:06.087Z,0.40
2023-02-13T07:01:34.493Z,0.40
2023-02-13T07:04:02.412Z,0.40
2023-02-13T07:06:30.315Z,0.50
2023-02-13T07:08:58.371Z,0.50
2023-02-13T07:11:27.553Z,0.60
2023-02-13T07:13:55.439Z,0.60
2023-02-13T07:16:23.495Z,0.70
2023-02-13T07:18:51.481Z,0.70
2023-02-13T07:21:19.418Z,0.80
2023-02-13T07:23:47.418Z,0.80
2023-02-13T07:26:16.169Z,0.90
2023-02-13T07:28:45.912Z,1.00
2023-02-13T07:31:14.100Z,1.00
2023-02-13T07:33:42.079Z,1.00
2023-02-13T07:36:10.539Z,1.10
2023-02-13T07:38:38.500Z,1.10
2023-02-13T07:41:06.660Z,1.20
2023-02-13T07:43:34.846Z,1.20
2023-02-13T07:49:24.582Z,1.40
2023-02-13T07:51:52.581Z,1.50
2023-02-13T07:54:20.867Z,1.50
2023-02-13T07:56:48.952Z,1.60
2023-02-13T07:59:17.130Z,1.70
2023-02-13T08:01:45.296Z,1.80
2023-02-13T08:04:13.449Z,1.80
2023-02-13T08:06:43.622Z,1.90
2023-02-13T08:09:38.480Z,1.90
2023-02-13T08:12:10.314Z,2.00
2023-02-13T08:14:38.772Z,2.10
2023-02-13T08:17:06.839Z,2.10
2023-02-13T08:19:37.272Z,2.20
2023-02-13T08:22:06.701Z,2.30
2023-02-13T08:24:37.739Z,2.30
2023-02-13T08:27:05.840Z,2.40
2023-02-13T08:29:34.661Z,2.40
2023-02-13T08:32:02.759Z,2.50
2023-02-13T08:34:31.343Z,2.60
2023-02-13T08:36:59.328Z,2.60
2023-02-13T08:39:29.331Z,2.70
2023-02-13T08:41:57.310Z,2.80
2023-02-13T08:44:28.285Z,2.90
2023-02-13T08:46:56.581Z,3.10
2023-02-13T08:49:24.626Z,3.30
2023-02-13T08:51:52.644Z,3.40
2023-02-13T08:54:20.538Z,3.50
2023-02-13T08:56:51.145Z,3.70
2023-02-13T08:59:19.125Z,3.80
2023-02-13T09:01:47.295Z,3.90
2023-02-13T09:04:18.012Z,4.10
2023-02-13T09:06:46.478Z,4.20
2023-02-13T09:09:14.447Z,4.30
2023-02-13T09:11:42.358Z,4.50
2023-02-13T09:14:11.631Z,4.70
2023-02-13T09:16:42.490Z,4.80
2023-02-13T09:19:10.470Z,4.80
2023-02-13T09:21:38.416Z,4.90
2023-02-13T09:24:08.926Z,5.10
2023-02-13T09:26:37.297Z,5.20
2023-02-13T09:29:05.308Z,5.30
2023-02-13T09:31:34.827Z,5.40
2023-02-13T09:34:03.031Z,5.30
2023-02-13T09:36:33.197Z,4.80
2023-02-13T09:39:01.857Z,4.80
2023-02-13T09:41:32.941Z,4.90
2023-02-13T09:44:03.985Z,4.80
2023-02-13T09:46:37.461Z,4.90
2023-02-13T09:49:09.732Z,5.20
2023-02-13T09:51:38.510Z,5.30
2023-02-13T09:54:08.845Z,5.30
2023-02-13T09:56:46.878Z,5.30
2023-02-13T09:59:31.188Z,5.40
2023-02-13T10:02:18.564Z,5.60
2023-02-13T10:04:53.696Z,5.80
2023-02-13T10:07:26.846Z,6.00
2023-02-13T10:10:03.237Z,6.20
2023-02-13T10:12:47.509Z,6.40
2023-02-13T10:15:23.245Z,6.60
2023-02-13T10:18:00.179Z,6.70
2023-02-13T10:20:35.801Z,6.90
2023-02-13T10:23:18.379Z,6.90
2023-02-13T10:25:53.230Z,7.00
2023-02-13T10:28:36.606Z,7.20
2023-02-13T10:31:07.306Z,7.30
2023-02-13T10:33:45.057Z,7.30
2023-02-13T10:36:19.453Z,7.40
2023-02-13T10:39:01.396Z,7.50
2023-02-13T10:41:43.111Z,7.50
2023-02-13T10:44:22.298Z,7.50
2023-02-13T10:47:05.026Z,7.70
2023-02-13T10:49:56.329Z,7.80
2023-02-13T10:52:33.848Z,7.90
2023-02-13T10:55:20.997Z,8.10
2023-02-13T10:58:07.285Z,8.30
2023-02-13T11:00:46.907Z,8.50
2023-02-13T11:03:19.779Z,8.60
2023-02-13T11:05:50.513Z,8.80
2023-02-13T11:08:22.300Z,9.00
2023-02-13T11:10:52.603Z,9.40
2023-02-13T11:13:22.749Z,10.40
2023-02-13T11:16:03.570Z,12.30
2023-02-13T11:18:34.465Z,14.60
2023-02-13T11:21:09.336Z,16.00
2023-02-13T11:23:48.429Z,17.20
2023-02-13T11:26:23.472Z,18.60
2023-02-13T11:28:55.442Z,20.20
2023-02-13T11:31:27.740Z,21.00
2023-02-13T11:33:58.979Z,21.90
2023-02-13T11:36:31.424Z,22.30
2023-02-13T11:39:01.617Z,22.60
2023-02-13T11:41:32.100Z,23.40
2023-02-13T11:44:02.373Z,24.30
2023-02-13T11:46:32.488Z,25.40
2023-02-13T11:49:03.379Z,26.10
2023-02-13T11:51:47.524Z,26.10
2023-02-13T11:54:30.430Z,25.80
2023-02-13T11:57:04.694Z,26.50
2023-02-13T11:59:41.713Z,26.80
2023-02-13T12:02:24.340Z,26.10
2023-02-13T12:04:54.573Z,26.30
2023-02-13T12:07:27.375Z,26.70
2023-02-13T12:10:02.691Z,26.80
2023-02-13T12:12:38.630Z,26.60
2023-02-13T12:15:18.792Z,26.20
2023-02-13T12:17:49.459Z,26.40
2023-02-13T12:20:19.238Z,25.30
2023-02-13T12:23:01.074Z,25.70
2023-02-13T12:25:50.180Z,25.90
2023-02-13T12:28:22.617Z,25.40
2023-02-13T12:31:13.539Z,25.60
2023-02-13T12:34:04.992Z,26.30
2023-02-13T12:36:43.308Z,27.10
2023-02-13T12:39:20.063Z,25.80
2023-02-13T12:41:58.321Z,25.00
2023-02-13T12:44:43.078Z,25.80
2023-02-13T12:47:18.127Z,26.10
2023-02-13T12:50:18.234Z,26.30
2023-02-13T12:52:55.731Z,26.40
2023-02-13T12:55:43.498Z,26.20
2023-02-13T12:58:32.280Z,26.20
2023-02-13T13:01:11.465Z,25.90
2023-02-13T13:03:52.090Z,26.00
2023-02-13T13:06:40.883Z,26.20
2023-02-13T13:09:38.984Z,26.10
2023-02-13T13:12:29.028Z,25.50
2023-02-13T13:15:09.887Z,26.20
2023-02-13T13:17:50.229Z,26.20
2023-02-13T13:20:44.564Z,25.20
2023-02-13T13:23:20.210Z,23.50
2023-02-13T13:26:00.227Z,21.50
2023-02-13T13:28:37.416Z,19.90
2023-02-13T13:31:09.618Z,18.80
2023-02-13T13:33:40.379Z,17.60
2023-02-13T13:36:14.700Z,16.10
2023-02-13T13:38:52.047Z,15.30
2023-02-13T13:41:30.729Z,14.80
2023-02-13T13:44:07.903Z,14.10
2023-02-13T13:46:45.643Z,13.60
2023-02-13T13:49:25.904Z,13.20
2023-02-13T13:52:09.979Z,13.10
2023-02-13T13:54:40.903Z,12.70
2023-02-13T13:57:12.554Z,12.30
2023-02-13T14:00:26.080Z,12.00
2023-02-13T14:03:23.567Z,11.80
2023-02-13T14:06:04.802Z,11.90
2023-02-13T14:09:00.744Z,11.90
2023-02-13T14:11:33.325Z,11.70
2023-02-13T14:14:01.811Z,11.70
2023-02-13T14:16:43.048Z,11.80
2023-02-13T14:19:27.150Z,11.70
2023-02-13T14:21:55.798Z,11.40
2023-02-13T14:24:25.794Z,11.40
2023-02-13T14:27:05.124Z,11.40
2023-02-13T14:29:37.435Z,11.60
2023-02-13T14:32:20.032Z,11.70
2023-02-13T14:34:53.150Z,11.80
2023-02-13T14:37:30.330Z,11.70
2023-02-13T14:40:31.980Z,11.60
2023-02-13T14:43:03.256Z,11.20
2023-02-13T14:45:34.314Z,11.00
2023-02-13T14:48:10.801Z,11.10
2023-02-13T14:50:46.994Z,11.10
2023-02-13T14:53:22.774Z,11.20
2023-02-13T14:55:58.351Z,11.30
2023-02-13T14:58:29.783Z,11.40
2023-02-13T15:01:03.508Z,11.50
2023-02-13T15:03:39.203Z,11.60
2023-02-13T15:06:15.151Z,11.60
2023-02-13T15:08:49.134Z,11.50
2023-02-13T15:11:38.835Z,11.40
2023-02-13T15:14:26.613Z,11.40
2023-02-13T15:17:00.697Z,11.40
2023-02-13T15:19:30.679Z,11.40
2023-02-13T15:22:05.360Z,11.30
2023-02-13T15:24:39.266Z,11.20
2023-02-13T15:27:08.795Z,11.20
2023-02-13T15:29:49.561Z,11.10
2023-02-13T15:32:22.490Z,11.00
2023-02-13T15:34:52.307Z,10.90
2023-02-13T15:37:26.854Z,10.80
2023-02-13T15:39:55.377Z,10.80
2023-02-13T15:42:31.825Z,10.80
2023-02-13T15:45:00.647Z,10.80
2023-02-13T15:47:31.720Z,10.80
2023-02-13T15:50:05.367Z,10.70
2023-02-13T15:52:40.406Z,10.60
2023-02-13T15:55:20.807Z,10.60
2023-02-13T15:57:49.883Z,10.60
2023-02-13T16:00:29.636Z,10.50
2023-02-13T16:03:01.983Z,10.40
2023-02-13T16:05:44.150Z,10.40
2023-02-13T16:08:39.508Z,10.40
2023-02-13T16:11:29.611Z,10.40
2023-02-13T16:14:17.514Z,10.30
2023-02-13T16:16:58.886Z,10.40
2023-02-13T16:19:33.788Z,10.30
2023-02-13T16:22:08.038Z,10.20
2023-02-13T16:24:37.841Z,10.20
2023-02-13T16:27:15.543Z,10.10
2023-02-13T16:29:55.074Z,10.00
2023-02-13T16:32:39.429Z,9.90
2023-02-13T16:35:28.461Z,9.80
2023-02-13T16:38:09.171Z,9.70
2023-02-13T16:40:42.727Z,9.60
2023-02-13T16:43:40.179Z,9.50
2023-02-13T16:46:24.104Z,9.40
2023-02-13T16:49:17.717Z,9.30
2023-02-13T16:51:51.760Z,9.20
2023-02-13T16:54:26.550Z,9.00
2023-02-13T16:57:03.215Z,8.90
2023-02-13T16:59:51.584Z,8.70
2023-02-13T17:02:24.225Z,8.70
2023-02-13T17:04:53.876Z,8.50
2023-02-13T17:07:24.856Z,8.40
2023-02-13T17:09:59.801Z,8.30
2023-02-13T17:12:29.102Z,8.10
2023-02-13T17:14:58.713Z,8.00
2023-02-13T17:17:29.604Z,7.80
2023-02-13T17:19:59.998Z,7.80
2023-02-13T17:22:37.616Z,7.70
2023-02-13T17:25:09.029Z,7.60
2023-02-13T17:27:37.027Z,7.50
2023-02-13T17:30:05.695Z,7.40
2023-02-13T17:32:33.658Z,7.30
2023-02-13T17:35:01.633Z,7.20
2023-02-13T17:37:30.047Z,7.10
2023-02-13T17:40:01.076Z,7.00
2023-02-13T17:42:31.346Z,6.90
2023-02-13T17:45:00.002Z,6.80
2023-02-13T17:47:30.342Z,6.80
2023-02-13T17:50:08.861Z,6.70
2023-02-13T17:52:38.243Z,6.60
2023-02-13T17:55:07.228Z,6.50
2023-02-13T17:57:36.738Z,6.40
2023-02-13T18:00:05.579Z,6.40
2023-02-13T18:02:34.309Z,6.30
2023-02-13T18:05:02.621Z,6.20
2023-02-13T18:07:30.633Z,6.10
2023-02-13T18:09:58.574Z,6.00
2023-02-13T18:12:26.689Z,6.00
2023-02-13T18:14:56.205Z,5.90
2023-02-13T18:17:24.179Z,5.90
2023-02-13T18:19:52.159Z,5.80
2023-02-13T18:22:20.289Z,5.80
2023-02-13T18:24:50.200Z,5.80
2023-02-13T18:27:18.498Z,5.70
2023-02-13T18:29:47.711Z,5.60
2023-02-13T18:32:17.150Z,5.60
2023-02-13T18:34:46.570Z,5.50
2023-02-13T18:37:14.668Z,5.50
2023-02-13T18:39:42.590Z,5.50
2023-02-13T18:42:11.475Z,5.40
2023-02-13T18:44:39.748Z,5.30
2023-02-13T18:47:08.091Z,5.30
2023-02-13T18:49:38.395Z,5.30
2023-02-13T18:52:06.801Z,5.20
2023-02-13T18:54:34.923Z,5.10
2023-02-13T18:57:07.332Z,5.00
2023-02-13T18:59:36.543Z,5.00
2023-02-13T19:02:14.887Z,4.90
2023-02-13T19:04:49.179Z,4.90
2023-02-13T19:07:22.987Z,4.90
2023-02-13T19:09:56.195Z,4.80
2023-02-13T19:12:25.495Z,4.80
2023-02-13T19:14:59.454Z,4.70
2023-02-13T19:17:40.841Z,4.70
2023-02-13T19:20:16.734Z,4.70
2023-02-13T19:22:47.715Z,4.60
2023-02-13T19:25:25.899Z,4.60
2023-02-13T19:28:13.699Z,4.60
2023-02-13T19:30:47.328Z,4.60
2023-02-13T19:33:17.432Z,4.60
2023-02-13T19:36:00.940Z,4.50
2023-02-13T19:38:29.820Z,4.40
2023-02-13T19:41:13.670Z,4.30
2023-02-13T19:43:44.236Z,4.30
2023-02-13T19:46:26.834Z,4.30
2023-02-13T19:49:00.314Z,4.30
2023-02-13T19:51:37.172Z,4.20
2023-02-13T19:54:12.503Z,4.10
2023-02-13T19:56:42.016Z,4.00
2023-02-13T19:59:13.579Z,4.00
2023-02-13T20:01:43.452Z,3.90
2023-02-13T20:04:12.052Z,3.90
2023-02-13T20:06:43.245Z,3.90
2023-02-13T20:09:13.221Z,3.90
2023-02-13T20:11:54.382Z,3.90
2023-02-13T20:14:22.706Z,3.90
2023-02-13T20:16:59.347Z,3.80
2023-02-13T20:19:35.154Z,3.70
2023-02-13T20:22:04.922Z,3.70
2023-02-13T20:24:36.366Z,3.70
2023-02-13T20:27:04.903Z,3.70
2023-02-13T20:29:38.554Z,3.60
2023-02-13T20:32:08.878Z,3.50
2023-02-13T20:37:49.864Z,3.50
2023-02-13T20:40:21.229Z,3.40
2023-02-13T20:42:59.782Z,3.40
2023-02-13T20:45:33.144Z,3.40
2023-02-13T20:48:31.473Z,3.40
2023-02-13T20:51:18.581Z,3.30
2023-02-13T20:53:50.487Z,3.30
2023-02-13T20:56:35.269Z,3.30
2023-02-13T20:59:08.046Z,3.20
2023-02-13T21:01:41.665Z,3.20
2023-02-13T21:04:15.024Z,3.20
2023-02-13T21:06:43.758Z,3.20
2023-02-13T21:09:16.665Z,3.20
2023-02-13T21:11:50.424Z,3.20
2023-02-13T21:14:21.135Z,3.10
2023-02-13T21:16:56.913Z,3.10
2023-02-13T21:19:40.122Z,3.00
2023-02-13T21:22:25.229Z,3.00
2023-02-13T21:24:59.914Z,3.00
2023-02-13T21:27:37.931Z,2.90
2023-02-13T21:30:07.664Z,2.90
2023-02-13T21:32:40.108Z,2.90
2023-02-13T21:35:11.042Z,2.90
2023-02-13T21:37:39.375Z,2.80
2023-02-13T21:40:14.549Z,2.80
2023-02-13T21:42:47.975Z,2.70
2023-02-13T21:45:19.376Z,2.80
2023-02-13T21:47:53.490Z,2.70
2023-02-13T21:50:22.316Z,2.70
2023-02-13T21:52:53.294Z,2.60
2023-02-13T21:55:24.154Z,2.60
2023-02-13T21:57:58.211Z,2.50
2023-02-13T22:00:27.677Z,2.60
2023-02-13T22:02:59.412Z,2.50
2023-02-13T22:05:27.759Z,2.50
2023-02-13T22:08:14.131Z,2.50
2023-02-13T22:10:44.314Z,2.50
2023-02-13T22:13:13.176Z,2.40
2023-02-13T22:15:41.392Z,2.40
2023-02-13T22:18:09.690Z,2.40
2023-02-13T22:20:37.913Z,2.40
2023-02-13T22:23:05.968Z,2.40
2023-02-13T22:25:34.817Z,2.40
2023-02-13T22:28:07.090Z,2.40
2023-02-13T22:30:40.833Z,2.40
2023-02-13T22:36:17.112Z,2.30
2023-02-13T22:38:50.565Z,2.20
2023-02-13T22:41:23.171Z,2.10
2023-02-13T22:43:53.481Z,2.10
2023-02-13T22:46:24.090Z,2.10
2023-02-13T22:48:54.709Z,2.10
2023-02-13T22:51:24.468Z,2.10
2023-02-13T22:53:54.052Z,2.10
2023-02-13T22:56:25.334Z,2.10
2023-02-13T22:58:55.031Z,2.10
2023-02-13T23:01:24.458Z,2.10
2023-02-13T23:03:52.936Z,2.10
2023-02-13T23:06:21.816Z,2.00
2023-02-13T23:08:52.575Z,2.00
2023-02-13T23:11:38.621Z,2.00
2023-02-13T23:14:08.061Z,2.00
2023-02-13T23:16:51.959Z,2.00
2023-02-13T23:19:20.472Z,2.00
2023-02-13T23:21:49.028Z,1.90
2023-02-13T23:24:21.753Z,1.80
2023-02-13T23:26:51.603Z,1.70
2023-02-13T23:29:21.087Z,1.70
2023-02-13T23:31:51.849Z,1.70
2023-02-13T23:34:22.498Z,1.60
2023-02-13T23:36:58.308Z,1.60
2023-02-13T23:39:39.647Z,1.50
2023-02-13T23:42:07.872Z,1.50
2023-02-13T23:44:37.330Z,1.50
2023-02-13T23:47:05.679Z,1.40
2023-02-13T23:49:34.025Z,1.40
2023-02-13T23:52:05.348Z,1.40
2023-02-13T23:54:39.690Z,1.40
2023-02-13T23:57:08.178Z,1.40
2023-02-13T23:59:38.680Z,1.30
